PHL weather

Philadelphia International Airport
Philadelphia, Pennsylvania, United States

Public forecast

Using degrees Fahrenheit for public forecast. Weather courtesy of forecast.io.

METAR (pilot weather report)

Retrieved 2017/10/24 05:54 UTC (48 minutes ago):

KPHL 240554Z 15015G23KT 10SM BKN026 BKN060 OVC120 23/18 A2986 RMK AO2 PRESFR SLP110 T02280178 10228 20206 58024 $

TAF (pilot weather forecast)

Retrieved 2017/10/24 06:42 UTC (0 seconds ago):

TAF KPHL 240540Z 2406/2512 15017G29KT P6SM VCSH OVC025 TEMPO 2407/2408 6SM -SHRA FM240800 16019G30KT 6SM -SHRA OVC025 FM241200 16017G29KT 2SM +SHRA OVC015 FM241500 19011KT 4SM SHRA OVC015 FM241700 19010KT 6SM -SHRA OVC015 FM242000 19008KT P6SM BKN050 FM250000 22005KT P6SM SCT050 FM250600 30005KT P6SM SCT250